Time;durP1;ratioP1;P1;durP2;ratioP2;P2;SDS_P1;SDS_P2;PMS_P1;PMS_P2;Temp;Humidity;BMP_temperature;BMP_pressure;BME280_temperature;BME280_humidity;BME280_pressure;Samples;Min_cycle;Max_cycle;Signal;HPM_P1;HPM_P2
2021/07/07 00:00:51;;;;;;;2.40;1.92;;;;;;;21.07;79.96;97622.28;5032741;28;20524;-77
2021/07/07 00:03:16;;;;;;;2.63;2.30;;;;;;;21.10;80.38;97623.56;5013545;28;20060;-79
2021/07/07 00:05:42;;;;;;;2.20;2.00;;;;;;;21.05;80.84;97623.84;5029748;28;20053;-78
2021/07/07 00:08:07;;;;;;;2.28;2.05;;;;;;;20.98;80.74;97620.94;5022255;28;20094;-78
2021/07/07 00:10:36;;;;;;;2.92;2.30;;;;;;;20.94;82.39;97617.28;5051151;28;20025;-78
2021/07/07 00:13:03;;;;;;;2.63;2.25;;;;;;;21.06;81.79;97628.22;5050440;28;20028;-79
2021/07/07 00:15:32;;;;;;;3.83;1.88;;;;;;;21.05;82.06;97621.06;5031679;28;20036;-79
2021/07/07 00:18:06;;;;;;;4.28;2.65;;;;;;;20.99;82.27;97620.56;5034698;28;20037;-78
2021/07/07 00:20:43;;;;;;;3.20;2.67;;;;;;;21.06;81.40;97628.22;5051902;28;20033;-78
2021/07/07 00:23:08;;;;;;;3.22;2.60;;;;;;;20.92;81.89;97614.09;5050650;28;20106;-79
2021/07/07 00:25:34;;;;;;;2.60;2.38;;;;;;;20.87;82.33;97622.72;5050057;28;20048;-78
2021/07/07 00:27:59;;;;;;;3.20;2.45;;;;;;;20.86;82.61;97618.34;5032740;28;20075;-79
2021/07/07 00:30:27;;;;;;;4.25;2.30;;;;;;;20.87;84.08;97615.19;5050764;28;20036;-78
2021/07/07 00:32:52;;;;;;;5.80;2.58;;;;;;;20.81;83.36;97620.25;5033658;28;20504;-78
2021/07/07 00:35:19;;;;;;;2.35;2.15;;;;;;;20.71;83.05;97609.75;5056346;28;20039;-79
2021/07/07 00:37:44;;;;;;;8.55;2.08;;;;;;;20.87;83.38;97620.75;5055138;28;20037;-80
2021/07/07 00:40:10;;;;;;;2.90;2.55;;;;;;;20.84;83.52;97618.72;5033017;28;20100;-79
2021/07/07 00:42:36;;;;;;;3.70;2.33;;;;;;;20.85;82.82;97620.31;5033194;28;20044;-79
2021/07/07 00:45:06;;;;;;;3.33;2.20;;;;;;;20.76;83.25;97614.22;5050870;28;20409;-80
2021/07/07 00:47:32;;;;;;;2.55;2.35;;;;;;;20.74;84.03;97614.56;5050349;28;20132;-78
2021/07/07 00:49:58;;;;;;;4.72;2.75;;;;;;;20.59;84.14;97603.56;5051329;28;20394;-80
2021/07/07 00:52:23;;;;;;;3.50;2.17;;;;;;;20.66;84.63;97612.03;5050635;28;20021;-79
2021/07/07 00:54:49;;;;;;;7.68;2.97;;;;;;;20.58;84.53;97597.19;5032648;28;20032;-81
2021/07/07 00:57:18;;;;;;;3.67;2.50;;;;;;;20.57;85.04;97609.50;5050453;28;20551;-78
2021/07/07 00:59:49;;;;;;;5.00;2.78;;;;;;;20.52;85.42;97606.19;5050789;28;20036;-78
2021/07/07 01:02:17;;;;;;;3.63;2.80;;;;;;;20.43;85.15;97603.66;5051527;28;20025;-79
2021/07/07 01:04:43;;;;;;;3.35;2.75;;;;;;;20.42;85.31;97610.41;5033070;28;20596;-80
2021/07/07 01:07:09;;;;;;;5.65;2.53;;;;;;;20.42;86.82;97609.59;5033076;28;20075;-78
2021/07/07 01:09:35;;;;;;;5.25;2.63;;;;;;;20.37;86.75;97601.53;5050603;28;20074;-79
2021/07/07 01:12:01;;;;;;;2.40;2.10;;;;;;;20.42;86.18;97606.81;5027374;28;20120;-79
2021/07/07 01:14:26;;;;;;;5.03;3.10;;;;;;;20.40;85.39;97609.16;5050738;28;20496;-80
2021/07/07 01:16:53;;;;;;;4.15;3.08;;;;;;;20.25;85.78;97608.84;5050035;28;20065;-80
2021/07/07 01:19:19;;;;;;;3.75;3.30;;;;;;;20.10;86.97;97612.53;5034974;28;20038;-79
2021/07/07 01:21:46;;;;;;;2.53;2.30;;;;;;;20.05;87.02;97604.47;5031232;28;20431;-79
2021/07/07 01:24:13;;;;;;;4.25;2.92;;;;;;;20.05;87.70;97614.75;5028747;28;20052;-78
2021/07/07 01:26:39;;;;;;;3.72;2.88;;;;;;;20.10;87.29;97611.72;5030148;28;20052;-79
2021/07/07 01:29:05;;;;;;;5.55;2.53;;;;;;;20.09;87.39;97604.53;5036906;28;20418;-79
2021/07/07 01:31:30;;;;;;;4.10;3.38;;;;;;;20.04;87.52;97611.22;5031734;28;20501;-78
2021/07/07 01:33:56;;;;;;;5.45;3.15;;;;;;;19.96;88.54;97623.31;5051699;28;20021;-77
2021/07/07 01:36:21;;;;;;;3.40;3.10;;;;;;;19.91;89.25;97620.03;5053005;28;20483;-81
2021/07/07 01:38:49;;;;;;;5.07;2.83;;;;;;;19.93;88.72;97610.16;5049566;28;20075;-80
2021/07/07 01:41:15;;;;;;;3.90;3.03;;;;;;;20.17;88.51;97612.66;5033475;28;20041;-78
2021/07/07 01:43:40;;;;;;;4.70;2.85;;;;;;;20.11;87.64;97622.44;5034668;28;20034;-78
2021/07/07 01:46:05;;;;;;;2.88;2.67;;;;;;;20.00;88.06;97629.75;5033735;28;20108;-78
2021/07/07 01:48:31;;;;;;;3.72;2.70;;;;;;;20.05;88.37;97621.13;5032321;28;20446;-79
2021/07/07 01:50:56;;;;;;;3.53;3.05;;;;;;;20.00;88.42;97621.44;5033782;28;20037;-80
2021/07/07 01:53:25;;;;;;;4.40;3.15;;;;;;;19.97;88.57;97618.56;5033246;28;20017;-79
2021/07/07 01:55:54;;;;;;;5.68;3.10;;;;;;;19.88;87.58;97604.91;5030041;28;20060;-79
2021/07/07 01:58:20;;;;;;;6.82;5.35;;;;;;;19.99;87.64;97619.00;5026562;28;20026;-78
2021/07/07 02:00:48;;;;;;;4.32;2.75;;;;;;;20.01;87.36;97611.13;5027814;28;20117;-79
2021/07/07 02:03:13;;;;;;;5.22;2.90;;;;;;;19.92;87.95;97622.47;5029958;28;20048;-79
2021/07/07 02:05:39;;;;;;;4.40;2.90;;;;;;;19.94;88.72;97613.75;5028516;28;20037;-79
2021/07/07 02:08:10;;;;;;;8.43;3.40;;;;;;;19.90;88.32;97616.44;5011283;28;20037;-79
2021/07/07 02:10:37;;;;;;;3.42;3.00;;;;;;;20.10;87.92;97614.50;5011197;28;20405;-78
2021/07/07 02:13:04;;;;;;;4.50;2.78;;;;;;;19.88;88.75;97616.03;5029749;28;20034;-78
2021/07/07 02:15:34;;;;;;;4.30;3.22;;;;;;;19.90;88.87;97626.75;5029133;28;20043;-79
2021/07/07 02:18:01;;;;;;;6.00;3.20;;;;;;;19.92;88.67;97619.69;5029536;28;20029;-78
2021/07/07 02:20:28;;;;;;;2.60;2.40;;;;;;;20.02;89.06;97627.41;5030666;28;20061;-79
2021/07/07 02:22:54;;;;;;;3.33;2.85;;;;;;;19.91;89.70;97626.41;5029686;28;20053;-79
2021/07/07 02:25:26;;;;;;;3.83;3.17;;;;;;;19.77;91.25;97626.06;5029136;28;20037;-77
2021/07/07 02:27:53;;;;;;;3.47;2.85;;;;;;;19.62;92.23;97618.59;5030664;28;20033;-79
2021/07/07 02:30:23;;;;;;;6.13;3.05;;;;;;;19.65;92.32;97623.44;5032065;28;20028;-79
2021/07/07 02:32:52;;;;;;;4.93;2.80;;;;;;;19.79;91.65;97620.97;5013814;28;20057;-78
2021/07/07 02:35:23;;;;;;;3.25;2.92;;;;;;;19.53;92.45;97618.81;5001640;28;20030;-78
2021/07/07 02:37:53;;;;;;;5.25;2.90;;;;;;;19.51;93.22;97623.94;5007340;28;20052;-77
2021/07/07 02:40:23;;;;;;;6.55;2.97;;;;;;;19.51;93.62;97623.94;5031420;28;20092;-78
2021/07/07 02:42:50;;;;;;;6.20;2.80;;;;;;;19.52;93.72;97633.03;5032326;28;20049;-78
2021/07/07 02:45:16;;;;;;;3.15;2.85;;;;;;;19.47;93.64;97627.78;5030989;28;20040;-79
2021/07/07 02:47:46;;;;;;;5.35;2.97;;;;;;;19.39;94.80;97637.09;5041875;28;20068;-80
2021/07/07 02:50:14;;;;;;;3.15;2.85;;;;;;;19.37;94.54;97633.84;5052577;28;20389;-80
2021/07/07 02:52:41;;;;;;;4.10;2.60;;;;;;;19.36;94.74;97643.34;5052453;28;20033;-80
2021/07/07 02:55:17;;;;;;;3.55;2.58;;;;;;;19.24;95.24;97635.91;5057380;28;20021;-79
2021/07/07 02:57:56;;;;;;;8.73;2.72;;;;;;;19.30;94.89;97634.47;5035942;28;20120;-78
2021/07/07 03:00:43;;;;;;;5.45;2.80;;;;;;;19.36;94.30;97635.03;5031770;28;20370;-79
2021/07/07 03:03:14;;;;;;;2.67;2.47;;;;;;;19.39;93.81;97634.31;5012892;28;20037;-79
2021/07/07 03:05:54;;;;;;;3.53;3.13;;;;;;;19.57;92.83;97643.88;5033898;28;20049;-80
2021/07/07 03:08:22;;;;;;;9.05;3.03;;;;;;;19.38;93.54;97649.34;5035377;28;20060;-78
2021/07/07 03:10:49;;;;;;;7.68;2.85;;;;;;;19.38;93.84;97652.09;5032504;28;20029;-79
2021/07/07 03:13:16;;;;;;;5.68;3.30;;;;;;;19.23;94.70;97654.53;5032009;28;20033;-79
2021/07/07 03:15:44;;;;;;;3.63;2.78;;;;;;;19.21;95.41;97654.09;5032034;28;21082;-80
2021/07/07 03:18:11;;;;;;;7.43;3.20;;;;;;;19.24;95.81;97658.91;5031588;28;20453;-80
2021/07/07 03:20:39;;;;;;;3.45;2.85;;;;;;;19.30;94.93;97666.94;5030629;28;20044;-80
2021/07/07 03:23:06;;;;;;;4.88;3.20;;;;;;;19.32;94.73;97671.00;5031720;28;20057;-80
2021/07/07 03:25:32;;;;;;;4.90;2.97;;;;;;;19.31;94.69;97665.81;5013908;28;20048;-81
2021/07/07 03:27:58;;;;;;;3.45;3.13;;;;;;;19.31;95.21;97663.03;5031695;28;20029;-79
2021/07/07 03:30:26;;;;;;;6.18;2.78;;;;;;;19.36;93.69;97671.88;5013669;28;20022;-79
2021/07/07 03:32:53;;;;;;;4.55;2.92;;;;;;;19.33;94.57;97657.94;5031852;28;20072;-79
2021/07/07 03:35:22;;;;;;;4.75;2.88;;;;;;;19.44;94.63;97672.91;5031691;28;20041;-78
2021/07/07 03:37:48;;;;;;;3.45;3.13;;;;;;;19.57;93.84;97661.34;5031858;28;20029;-79
2021/07/07 03:40:14;;;;;;;4.10;2.92;;;;;;;19.68;92.96;97664.34;5031717;28;20021;-79
2021/07/07 03:42:40;;;;;;;5.18;2.67;;;;;;;19.96;91.37;97672.50;5031895;28;20034;-79
2021/07/07 03:45:11;;;;;;;4.90;2.60;;;;;;;20.33;88.99;97673.72;5031658;28;20091;-79
2021/07/07 03:47:37;;;;;;;8.52;2.63;;;;;;;20.39;87.15;97668.69;5013697;28;20495;-80
2021/07/07 03:50:04;;;;;;;6.68;2.97;;;;;;;20.49;87.19;97680.00;5013818;28;20041;-80
2021/07/07 03:52:30;;;;;;;3.90;3.50;;;;;;;20.41;87.19;97677.44;5013171;28;20112;-79
2021/07/07 03:54:56;;;;;;;7.97;3.25;;;;;;;20.59;86.20;97675.81;5031193;28;20450;-78
2021/07/07 03:57:21;;;;;;;4.70;3.00;;;;;;;20.83;85.09;97673.50;5030727;28;20030;-79
2021/07/07 03:59:47;;;;;;;7.55;3.03;;;;;;;21.08;83.07;97682.31;5031297;28;20363;-78
2021/07/07 04:02:13;;;;;;;5.00;2.92;;;;;;;21.63;80.78;97694.00;5031476;28;20026;-80
2021/07/07 04:04:40;;;;;;;4.00;2.97;;;;;;;21.63;80.05;97685.63;5031341;28;20076;-78
2021/07/07 04:07:05;;;;;;;5.93;2.47;;;;;;;22.29;77.30;97685.84;5031099;28;20040;-81
2021/07/07 04:09:31;;;;;;;5.55;3.13;;;;;;;22.36;76.65;97693.47;5030890;28;20025;-80
2021/07/07 04:11:57;;;;;;;3.78;2.67;;;;;;;21.98;78.44;97696.53;5029818;28;20033;-79
2021/07/07 04:14:27;;;;;;;4.93;3.50;;;;;;;22.13;76.99;97695.56;5031223;28;20386;-80
2021/07/07 04:16:56;;;;;;;5.70;2.90;;;;;;;22.04;78.37;97700.59;5030941;28;20453;-79
2021/07/07 04:19:23;;;;;;;5.00;3.22;;;;;;;22.06;78.47;97690.69;5013453;28;20030;-80
2021/07/07 04:21:49;;;;;;;21.85;9.15;;;;;;;21.94;76.66;97696.47;5031155;28;20056;-79
2021/07/07 04:24:17;;;;;;;9.43;7.18;;;;;;;22.06;76.59;97707.41;5031174;28;20433;-79
2021/07/07 04:26:44;;;;;;;27.05;21.42;;;;;;;22.21;76.04;97709.19;5048893;28;20051;-79
2021/07/07 04:29:10;;;;;;;33.67;22.70;;;;;;;22.48;74.11;97701.59;5050984;28;20017;-79
2021/07/07 04:31:36;;;;;;;18.13;11.93;;;;;;;22.94;72.33;97707.72;5016310;28;20098;-79
2021/07/07 04:34:03;;;;;;;11.98;7.45;;;;;;;22.80;72.69;97707.59;5050946;28;20033;-79
2021/07/07 04:36:29;;;;;;;12.63;6.18;;;;;;;22.67;72.64;97709.84;5050867;28;20037;-80
2021/07/07 04:38:54;;;;;;;7.15;3.83;;;;;;;22.11;74.73;97712.66;5050935;28;20418;-78
2021/07/07 04:41:19;;;;;;;6.70;3.00;;;;;;;22.03;75.37;97708.16;5050915;28;20108;-79
2021/07/07 04:43:45;;;;;;;4.93;3.15;;;;;;;22.01;75.06;97691.03;5050729;28;20486;-80
2021/07/07 04:46:10;;;;;;;5.05;3.30;;;;;;;21.90;76.13;97715.13;5050412;28;20025;-79
2021/07/07 04:48:36;;;;;;;5.07;3.53;;;;;;;21.54;77.34;97702.59;5050432;28;20102;-79
2021/07/07 04:51:01;;;;;;;5.20;3.45;;;;;;;21.77;77.93;97705.38;5050643;28;20371;-81
2021/07/07 04:53:30;;;;;;;10.65;6.32;;;;;;;21.74;77.82;97701.31;5031587;28;20409;-79
2021/07/07 04:55:59;;;;;;;8.50;5.60;;;;;;;21.89;77.10;97696.81;5037165;28;20385;-80
2021/07/07 04:58:25;;;;;;;6.60;4.70;;;;;;;22.04;76.12;97697.81;5055490;28;20021;-81
2021/07/07 05:00:51;;;;;;;5.32;4.25;;;;;;;22.26;75.77;97696.94;5051307;28;20033;-80
2021/07/07 05:03:17;;;;;;;9.07;3.85;;;;;;;22.54;74.53;97700.06;5050748;28;20025;-80
2021/07/07 05:05:42;;;;;;;5.93;4.25;;;;;;;22.29;74.53;97688.63;5033218;28;20406;-80
2021/07/07 05:08:08;;;;;;;6.68;4.45;;;;;;;22.05;75.54;97697.44;5051892;28;20375;-79
2021/07/07 05:10:34;;;;;;;4.72;4.07;;;;;;;22.07;76.70;97691.50;5037148;28;20051;-79
2021/07/07 05:13:04;;;;;;;9.73;5.82;;;;;;;22.14;76.20;97689.63;5059597;28;20029;-80
2021/07/07 05:15:30;;;;;;;9.10;6.03;;;;;;;21.92;77.16;97695.25;5037991;28;20045;-78
2021/07/07 05:17:56;;;;;;;13.18;6.05;;;;;;;21.86;77.57;97697.53;5053364;28;20052;-79
2021/07/07 05:20:21;;;;;;;15.65;5.53;;;;;;;22.02;77.62;97697.41;5048111;28;20386;-80
2021/07/07 05:22:48;;;;;;;5.82;3.97;;;;;;;21.75;78.95;97697.38;5017500;28;20068;-87
2021/07/07 05:25:15;;;;;;;15.10;5.60;;;;;;;22.38;75.90;97697.50;5036097;28;20037;-75
2021/07/07 05:27:41;;;;;;;9.27;5.10;;;;;;;22.47;75.63;97704.75;5033819;28;20160;-76
2021/07/07 05:30:08;;;;;;;7.07;3.70;;;;;;;22.45;76.23;97704.34;5033328;28;20033;-77
2021/07/07 05:32:34;;;;;;;6.55;3.35;;;;;;;22.32;75.91;97698.19;5032895;28;20395;-75
2021/07/07 05:35:00;;;;;;;4.97;3.45;;;;;;;22.28;76.35;97703.72;5033452;28;20022;-75
2021/07/07 05:37:26;;;;;;;7.93;3.58;;;;;;;22.68;74.79;97700.25;5033430;28;20393;-73
2021/07/07 05:39:53;;;;;;;8.95;3.22;;;;;;;22.65;74.04;97706.59;5040369;28;20095;-73
2021/07/07 05:42:20;;;;;;;8.52;3.30;;;;;;;22.83;74.35;97717.97;5033426;28;20057;-77
2021/07/07 05:44:47;;;;;;;12.50;4.13;;;;;;;22.82;73.71;97711.59;5033220;28;20536;-75
2021/07/07 05:47:13;;;;;;;6.38;3.25;;;;;;;22.64;74.44;97712.53;5031626;28;20525;-75
2021/07/07 05:49:40;;;;;;;6.18;3.72;;;;;;;22.90;73.84;97723.63;5014713;28;20018;-78
2021/07/07 05:52:05;;;;;;;10.00;3.80;;;;;;;22.52;75.09;97719.19;5015254;28;20029;-78
2021/07/07 05:54:31;;;;;;;6.55;3.13;;;;;;;22.94;73.06;97732.84;5033270;28;20386;-74
2021/07/07 05:56:57;;;;;;;5.88;3.70;;;;;;;23.26;72.34;97735.97;5033226;28;20091;-74
2021/07/07 05:59:23;;;;;;;6.38;3.33;;;;;;;23.48;71.11;97737.81;5033120;28;20425;-75
2021/07/07 06:01:48;;;;;;;4.70;3.30;;;;;;;23.80;69.39;97735.28;5033180;28;20026;-75
2021/07/07 06:04:13;;;;;;;5.32;2.83;;;;;;;23.86;68.53;97733.72;5015234;28;20402;-75
2021/07/07 06:06:39;;;;;;;8.98;3.58;;;;;;;24.16;67.52;97739.16;5033007;28;20117;-78
2021/07/07 06:09:04;;;;;;;8.18;3.88;;;;;;;23.99;68.68;97719.03;5039273;28;20040;-77
2021/07/07 06:11:30;;;;;;;5.38;3.60;;;;;;;24.11;67.07;97736.69;5045053;28;20037;-77
2021/07/07 06:13:55;;;;;;;6.55;3.60;;;;;;;24.38;67.87;97741.69;5052550;28;20563;-76
2021/07/07 06:16:20;;;;;;;5.10;3.92;;;;;;;24.66;65.64;97745.81;5052270;28;20223;-73
2021/07/07 06:18:46;;;;;;;8.98;3.42;;;;;;;24.88;66.21;97744.72;5052009;28;20048;-78
2021/07/07 06:21:11;;;;;;;11.63;3.78;;;;;;;24.79;64.94;97744.28;5052074;28;20028;-73
2021/07/07 06:23:36;;;;;;;8.88;3.50;;;;;;;25.25;64.50;97748.03;5052760;28;20033;-76
2021/07/07 06:26:02;;;;;;;4.50;3.00;;;;;;;25.31;63.84;97743.63;5025502;28;20443;-73
2021/07/07 06:28:27;;;;;;;5.75;3.17;;;;;;;25.04;62.63;97747.97;5038006;28;20032;-73
2021/07/07 06:30:53;;;;;;;6.57;3.70;;;;;;;25.34;64.00;97745.66;5051475;28;20764;-74
2021/07/07 06:33:19;;;;;;;5.35;3.22;;;;;;;25.32;62.98;97750.84;5034230;28;20029;-73
2021/07/07 06:35:44;;;;;;;9.45;3.65;;;;;;;25.23;61.35;97756.03;5051985;28;20422;-74
2021/07/07 06:38:10;;;;;;;3.67;2.90;;;;;;;25.35;60.48;97750.06;5051083;28;20528;-74
2021/07/07 06:40:36;;;;;;;3.85;2.92;;;;;;;25.22;61.36;97751.63;5044400;28;20017;-73
2021/07/07 06:43:02;;;;;;;4.70;3.42;;;;;;;25.56;61.27;97752.91;5041342;28;20482;-72
2021/07/07 06:45:28;;;;;;;5.22;2.85;;;;;;;25.86;60.79;97760.94;5041201;28;20035;-73
2021/07/07 06:47:54;;;;;;;5.22;3.38;;;;;;;25.43;61.20;97762.91;5034138;28;20080;-73
2021/07/07 06:50:20;;;;;;;6.35;3.60;;;;;;;25.82;58.95;97762.13;5030724;28;20022;-74
2021/07/07 06:52:46;;;;;;;5.82;3.72;;;;;;;26.17;59.79;97761.34;5013308;28;20025;-74
2021/07/07 06:55:12;;;;;;;4.22;2.75;;;;;;;26.00;59.15;97760.16;5031160;28;20029;-75
2021/07/07 06:57:38;;;;;;;3.75;2.90;;;;;;;26.13;57.71;97757.72;5013039;28;20018;-75
2021/07/07 07:00:14;;;;;;;5.47;3.10;;;;;;;26.51;57.30;97765.28;5030955;28;20032;-74
2021/07/07 07:02:40;;;;;;;3.53;2.92;;;;;;;26.50;56.81;97756.06;5010912;28;20030;-75
2021/07/07 07:05:08;;;;;;;6.25;3.40;;;;;;;26.96;56.82;97763.56;5033174;28;20029;-77
2021/07/07 07:07:34;;;;;;;4.80;2.17;;;;;;;27.05;55.80;97767.53;5014564;28;20109;-76
2021/07/07 07:09:59;;;;;;;3.55;3.03;;;;;;;27.01;54.85;97754.69;5030871;28;20030;-78
2021/07/07 07:12:26;;;;;;;4.40;2.83;;;;;;;27.04;54.67;97759.50;5031945;28;20033;-78
2021/07/07 07:14:53;;;;;;;5.97;2.88;;;;;;;26.59;56.00;97766.88;5030716;28;20029;-76
2021/07/07 07:17:23;;;;;;;7.03;2.88;;;;;;;26.74;55.57;97762.81;5026729;28;20117;-80
2021/07/07 07:19:49;;;;;;;6.22;2.75;;;;;;;26.97;54.42;97765.94;5031152;28;20026;-79
2021/07/07 07:22:16;;;;;;;7.45;2.90;;;;;;;27.06;54.64;97765.53;5029743;28;20513;-74
2021/07/07 07:24:44;;;;;;;6.28;2.78;;;;;;;27.21;54.07;97758.63;5030505;28;20112;-76
2021/07/07 07:27:11;;;;;;;5.90;3.05;;;;;;;27.43;53.38;97768.53;5030569;28;20556;-75
2021/07/07 07:29:37;;;;;;;3.17;2.63;;;;;;;27.48;54.74;97758.88;5013168;28;20455;-75
2021/07/07 07:32:04;;;;;;;5.97;2.95;;;;;;;27.47;54.61;97766.50;5037581;28;20386;-77
2021/07/07 07:34:30;;;;;;;8.25;2.90;;;;;;;27.33;54.76;97766.56;5032011;28;20112;-73
2021/07/07 07:37:00;;;;;;;7.63;2.75;;;;;;;26.95;57.32;97775.97;5012035;28;20466;-77
2021/07/07 07:39:38;;;;;;;8.13;3.55;;;;;;;26.83;57.37;97766.00;5030295;28;20029;-81
2021/07/07 07:42:04;;;;;;;4.05;2.95;;;;;;;27.00;57.61;97769.97;5029964;28;20116;-78
2021/07/07 07:44:29;;;;;;;13.15;4.20;;;;;;;27.09;56.04;97773.13;5030079;28;20100;-78
2021/07/07 07:46:57;;;;;;;9.20;3.58;;;;;;;27.35;54.47;97769.75;5014239;28;20049;-75
2021/07/07 07:49:22;;;;;;;10.23;3.53;;;;;;;27.39;54.19;97776.16;5040573;28;20453;-74
2021/07/07 07:51:48;;;;;;;3.25;2.50;;;;;;;27.93;53.17;97777.41;5039708;28;20112;-74
2021/07/07 07:54:13;;;;;;;7.32;3.13;;;;;;;28.24;52.54;97786.81;5040105;28;20029;-75
2021/07/07 07:56:39;;;;;;;5.10;3.25;;;;;;;27.97;52.35;97783.81;5040690;28;20033;-73
2021/07/07 07:59:10;;;;;;;8.15;3.17;;;;;;;28.40;51.23;97784.25;5038737;28;20079;-77
2021/07/07 08:01:35;;;;;;;9.02;3.33;;;;;;;28.62;50.57;97780.00;5021702;28;20374;-75
2021/07/07 08:04:02;;;;;;;7.43;2.70;;;;;;;28.90;50.84;97789.38;5040615;28;20021;-77
2021/07/07 08:06:27;;;;;;;4.93;2.83;;;;;;;28.92;48.67;97781.28;5039057;28;20020;-74
2021/07/07 08:08:54;;;;;;;4.53;2.88;;;;;;;29.10;49.36;97781.88;5043194;28;20032;-76
2021/07/07 08:11:22;;;;;;;9.15;3.00;;;;;;;29.07;49.20;97789.13;5047605;28;20381;-75
2021/07/07 08:13:48;;;;;;;10.38;3.88;;;;;;;29.51;47.82;97790.97;5018011;28;20040;-75
2021/07/07 08:16:13;;;;;;;5.20;2.88;;;;;;;29.75;47.40;97789.84;5043144;28;20025;-74
2021/07/07 08:18:40;;;;;;;5.57;3.25;;;;;;;29.95;48.34;97797.59;5022647;28;20116;-75
2021/07/07 08:21:05;;;;;;;8.27;4.07;;;;;;;30.02;46.86;97791.84;5030972;28;20029;-74
2021/07/07 08:23:31;;;;;;;8.00;3.03;;;;;;;29.83;46.38;97789.72;5030667;28;20492;-75
2021/07/07 08:25:56;;;;;;;5.10;3.22;;;;;;;29.73;46.23;97789.44;5030540;28;20429;-73
2021/07/07 08:28:23;;;;;;;3.25;2.95;;;;;;;29.72;46.30;97790.69;5030406;28;20029;-76
2021/07/07 08:30:48;;;;;;;5.57;2.90;;;;;;;30.03;45.16;97793.44;5050248;28;20025;-76
2021/07/07 08:33:15;;;;;;;5.40;2.40;;;;;;;30.08;45.65;97795.78;5047798;28;20043;-74
2021/07/07 08:35:41;;;;;;;3.97;2.35;;;;;;;30.78;44.29;97791.72;5048854;28;20039;-75
2021/07/07 08:38:07;;;;;;;6.45;2.47;;;;;;;30.97;43.04;97789.34;5048650;28;20136;-78
2021/07/07 08:40:33;;;;;;;7.22;2.95;;;;;;;30.76;43.58;97790.56;5050341;28;20484;-77
2021/07/07 08:42:58;;;;;;;4.70;2.30;;;;;;;31.05;43.30;97790.78;5049829;28;20075;-77
2021/07/07 08:45:24;;;;;;;8.38;2.35;;;;;;;31.13;42.30;97789.44;5049113;28;20593;-77
2021/07/07 08:47:51;;;;;;;3.33;2.10;;;;;;;30.97;42.74;97790.16;5048740;28;20402;-77
2021/07/07 08:50:20;;;;;;;5.55;2.78;;;;;;;31.34;41.99;97791.78;5047283;28;20052;-76
2021/07/07 08:52:46;;;;;;;4.90;2.50;;;;;;;31.61;41.47;97789.59;5067723;28;20535;-74
2021/07/07 08:55:14;;;;;;;4.50;3.08;;;;;;;31.70;41.55;97786.16;5067123;28;20544;-76
2021/07/07 08:57:43;;;;;;;6.22;2.63;;;;;;;31.53;41.41;97790.19;5031409;28;20107;-75
2021/07/07 09:00:31;;;;;;;8.40;3.13;;;;;;;32.13;40.53;97792.41;5012196;28;20036;-75
2021/07/07 09:03:03;;;;;;;6.43;2.80;;;;;;;32.12;40.88;97790.00;5030438;28;20485;-77
2021/07/07 09:05:29;;;;;;;3.35;2.28;;;;;;;32.14;40.86;97787.56;5012508;28;20045;-76
2021/07/07 09:08:05;;;;;;;4.30;2.63;;;;;;;32.12;40.37;97787.19;5032139;28;20116;-76
2021/07/07 09:10:31;;;;;;;10.98;2.35;;;;;;;32.34;39.46;97791.06;5049379;28;20028;-77
2021/07/07 09:13:18;;;;;;;2.35;2.15;;;;;;;32.48;37.99;97789.91;5050071;28;20056;-77
2021/07/07 09:15:44;;;;;;;4.63;2.00;;;;;;;32.05;38.34;97787.34;5050030;28;20033;-78
2021/07/07 09:18:33;;;;;;;7.90;2.40;;;;;;;32.65;37.59;97786.63;5049817;28;20028;-77
2021/07/07 09:20:58;;;;;;;3.47;2.25;;;;;;;32.74;36.41;97792.44;5050721;28;20485;-77
2021/07/07 09:23:26;;;;;;;1.70;1.60;;;;;;;32.17;37.96;97786.66;5050857;28;20033;-78
2021/07/07 09:26:05;;;;;;;3.38;1.83;;;;;;;32.56;37.39;97786.47;5051299;28;20549;-80
2021/07/07 09:28:39;;;;;;;2.53;1.80;;;;;;;33.00;36.01;97781.19;5034278;28;20033;-78
2021/07/07 09:31:32;;;;;;;2.65;1.63;;;;;;;33.24;35.38;97791.84;5051279;28;20017;-78
2021/07/07 09:34:16;;;;;;;2.10;1.60;;;;;;;33.50;33.86;97789.03;5043444;28;20033;-77
2021/07/07 09:36:45;;;;;;;4.20;1.55;;;;;;;33.61;34.09;97793.19;5049842;28;20033;-78
2021/07/07 09:39:11;;;;;;;3.22;1.55;;;;;;;33.26;34.84;97794.25;5049649;28;20086;-80
2021/07/07 09:41:37;;;;;;;2.13;1.52;;;;;;;32.92;35.36;97780.63;5049736;28;20515;-79
2021/07/07 09:44:03;;;;;;;1.52;1.17;;;;;;;32.72;36.03;97789.25;5048695;28;20499;-78
2021/07/07 09:46:29;;;;;;;4.45;1.30;;;;;;;33.07;35.12;97792.34;5030188;28;20029;-79
2021/07/07 09:48:55;;;;;;;1.90;1.35;;;;;;;33.38;34.51;97791.44;5030447;28;20026;-81
2021/07/07 09:51:21;;;;;;;1.50;1.33;;;;;;;32.79;34.72;97788.28;5014935;28;20021;-81
2021/07/07 09:53:47;;;;;;;1.88;1.40;;;;;;;33.25;34.43;97792.63;5031341;28;20029;-77
2021/07/07 09:56:12;;;;;;;4.35;1.45;;;;;;;33.73;33.54;97794.44;5033472;28;20044;-79
2021/07/07 09:58:38;;;;;;;2.40;1.95;;;;;;;34.17;33.39;97796.28;5015469;28;20378;-78
2021/07/07 10:01:04;;;;;;;3.33;1.30;;;;;;;33.62;33.20;97788.28;5015105;28;20025;-79
2021/07/07 10:03:31;;;;;;;2.78;1.25;;;;;;;32.80;34.45;97795.50;5015403;28;20026;-79
2021/07/07 10:05:58;;;;;;;1.45;1.35;;;;;;;33.39;33.77;97792.22;5015442;28;20528;-79
2021/07/07 10:08:25;;;;;;;2.33;1.33;;;;;;;33.48;33.26;97797.22;5033418;28;20033;-88
2021/07/07 10:10:51;;;;;;;1.67;1.17;;;;;;;33.39;32.63;97797.91;5033389;28;20028;-79
2021/07/07 10:13:16;;;;;;;2.63;1.52;;;;;;;33.23;33.74;97795.13;5033833;28;20044;-81
2021/07/07 10:15:42;;;;;;;1.90;1.45;;;;;;;33.63;33.22;97802.03;5033374;28;20025;-78
2021/07/07 10:18:08;;;;;;;1.23;1.17;;;;;;;34.23;31.65;97802.16;5015887;28;20025;-77
2021/07/07 10:20:36;;;;;;;1.63;1.20;;;;;;;34.35;30.81;97801.34;5032749;28;20034;-75
2021/07/07 10:23:05;;;;;;;1.40;0.93;;;;;;;34.55;30.30;97799.03;5015240;28;20026;-76
2021/07/07 10:25:32;;;;;;;1.73;1.58;;;;;;;34.69;31.15;97803.44;5032861;28;20033;-77
2021/07/07 10:28:02;;;;;;;4.55;1.38;;;;;;;34.67;30.91;97795.38;5031408;28;20014;-77
2021/07/07 10:30:47;;;;;;;1.70;1.17;;;;;;;34.88;31.34;97810.88;5014972;28;20048;-77
2021/07/07 10:33:14;;;;;;;1.60;1.50;;;;;;;34.24;31.97;97789.56;5014940;28;20017;-76
2021/07/07 10:35:40;;;;;;;1.90;1.27;;;;;;;33.51;33.33;97797.13;5032575;28;20117;-77
2021/07/07 10:38:06;;;;;;;2.70;2.00;;;;;;;33.00;34.16;97792.53;5014803;28;20159;-76
2021/07/07 10:40:36;;;;;;;1.67;1.58;;;;;;;33.21;34.13;97797.63;5014108;28;20064;-76
2021/07/07 10:43:02;;;;;;;1.50;1.40;;;;;;;33.26;33.84;97792.19;5014765;28;20037;-77
2021/07/07 10:45:41;;;;;;;2.42;1.38;;;;;;;33.20;34.56;97794.00;5036780;28;20040;-76
2021/07/07 10:48:21;;;;;;;3.40;1.45;;;;;;;33.26;34.17;97794.25;5014234;28;20052;-77
2021/07/07 10:50:47;;;;;;;1.77;1.42;;;;;;;33.58;33.70;97788.38;5032483;28;20084;-77
2021/07/07 10:53:24;;;;;;;2.20;1.27;;;;;;;34.06;33.16;97795.00;5032227;28;20694;-75
2021/07/07 10:55:50;;;;;;;7.13;1.42;;;;;;;34.67;32.28;97781.16;5032525;28;20382;-74
2021/07/07 10:58:26;;;;;;;2.20;1.40;;;;;;;34.81;32.02;97774.97;5032140;28;20037;-76
2021/07/07 11:00:52;;;;;;;1.77;1.30;;;;;;;34.45;31.68;97777.47;5032004;28;20120;-77
2021/07/07 11:03:31;;;;;;;1.77;1.33;;;;;;;34.13;33.20;97772.06;5031630;28;20108;-73
2021/07/07 11:06:21;;;;;;;1.05;1.00;;;;;;;33.68;32.58;97767.41;5031221;28;20056;-75
2021/07/07 11:08:48;;;;;;;1.40;1.30;;;;;;;33.21;33.31;97755.06;5031202;28;20478;-75
2021/07/07 11:11:24;;;;;;;1.45;1.17;;;;;;;33.35;33.53;97763.97;5031934;28;20025;-74
2021/07/07 11:13:52;;;;;;;1.40;1.27;;;;;;;34.08;33.02;97764.91;5031669;28;20481;-77
2021/07/07 11:16:23;;;;;;;4.00;1.13;;;;;;;34.11;32.59;97766.06;5014083;28;20434;-75
2021/07/07 11:18:50;;;;;;;1.73;1.50;;;;;;;33.86;32.70;97769.69;5013885;28;20036;-75
2021/07/07 11:21:17;;;;;;;1.45;1.35;;;;;;;34.12;32.64;97759.09;5014063;28;20116;-75
2021/07/07 11:23:43;;;;;;;1.33;1.23;;;;;;;34.13;31.80;97761.50;5031634;28;20025;-76
2021/07/07 11:26:10;;;;;;;1.92;1.63;;;;;;;34.00;31.89;97760.69;5031378;28;20036;-76
2021/07/07 11:28:35;;;;;;;1.30;1.20;;;;;;;33.56;32.21;97748.31;5029864;28;20025;-75
2021/07/07 11:31:01;;;;;;;2.03;1.33;;;;;;;33.75;32.32;97752.19;5013304;28;20086;-75
2021/07/07 11:33:28;;;;;;;1.20;1.10;;;;;;;33.86;32.25;97752.66;5031523;28;20025;-75